Time;durP1;ratioP1;P1;durP2;ratioP2;P2;SDS_P1;SDS_P2;PMS_P1;PMS_P2;Temp;Humidity;BMP_temperature;BMP_pressure;BME280_temperature;BME280_humidity;BME280_pressure;Samples;Min_cycle;Max_cycle;Signal;HPM_P1;HPM_P2
2023/05/17 00:07:51;;;;;;;;;;;;;;;;;;;;;
2023/05/17 00:11:03;;;;;;;1.97;1.00;;;;;;;;;;5079577;28;20220;-29
2023/05/17 00:13:54;;;;;;;1.77;1.10;;;;;;;;;;5085525;28;20236;-27
2023/05/17 00:19:44;;;;;;;2.07;1.10;;;;;;;;;;5076997;28;20200;-28
2023/05/17 00:34:38;;;;;;;1.70;1.00;;;;;;;;;;5163494;22;20244;-29
2023/05/17 00:50:01;;;;;;;1.93;0.90;;;;;;;;;;5265529;22;20299;-30
2023/05/17 00:59:10;;;;;;;2.90;0.73;;;;;;;;;;5053909;28;20256;-29
2023/05/17 01:07:57;;;;;;;3.77;1.10;;;;;;;;;;4991408;28;20294;-28
2023/05/17 01:10:58;;;;;;;;;;;;;;;;;;;;;
2023/05/17 01:35:53;;;;;;;3.23;1.00;;;;;;;;;;5059678;27;21164;-36
2023/05/17 01:39:02;;;;;;;2.53;0.90;;;;;;;;;;5026747;28;20219;-36
2023/05/17 01:41:49;;;;;;;1.07;0.90;;;;;;;;;;5328508;22;20240;-26
2023/05/17 01:51:16;;;;;;;1.10;0.80;;;;;;;;;;4995782;28;20207;-27
2023/05/17 01:56:28;;;;;;;2.37;0.90;;;;;;;;;;4980387;28;20488;-29
2023/05/17 01:59:12;;;;;;;1.70;1.13;;;;;;;;;;4977542;28;20216;-31
2023/05/17 02:07:56;;;;;;;;;;;;;;;;;;;;;
2023/05/17 02:13:36;;;;;;;1.67;0.90;;;;;;;;;;4981547;28;20212;-28
2023/05/17 02:16:34;;;;;;;1.43;1.00;;;;;;;;;;4929052;28;20321;-30
2023/05/17 02:28:10;;;;;;;1.90;0.70;;;;;;;;;;4987800;28;20226;-26
2023/05/17 02:37:20;;;;;;;2.63;0.87;;;;;;;;;;4891591;29;20238;-27
2023/05/17 02:43:04;;;;;;;0.80;0.80;;;;;;;;;;4981509;28;20218;-28
2023/05/17 02:45:51;;;;;;;;;;;;;;;;;;;;;
2023/05/17 02:48:49;;;;;;;1.07;0.70;;;;;;;;;;5033481;28;20202;-31
2023/05/17 02:51:53;;;;;;;;;;;;;;;;;;;;;
2023/05/17 03:01:09;;;;;;;2.10;0.70;;;;;;;;;;5050131;28;20229;-30
2023/05/17 03:04:01;;;;;;;0.70;0.70;;;;;;;;;;5070407;28;20216;-30
2023/05/17 03:06:49;;;;;;;0.73;0.70;;;;;;;;;;5055663;28;20228;-30
2023/05/17 03:16:14;;;;;;;2.37;0.80;;;;;;;;;;5048472;28;20241;-28
2023/05/17 03:19:18;;;;;;;2.70;1.10;;;;;;;;;;4984028;28;20262;-28
2023/05/17 03:25:21;;;;;;;1.10;0.87;;;;;;;;;;5227251;22;20264;-33
2023/05/17 03:54:02;;;;;;;1.63;0.87;;;;;;;;;;5187865;22;20233;-28
2023/05/17 03:59:57;;;;;;;;;;;;;;;;;;;;;
2023/05/17 04:02:49;;;;;;;1.47;0.97;;;;;;;;;;5048456;28;20206;-31
2023/05/17 04:05:45;;;;;;;2.60;1.00;;;;;;;;;;5055330;28;20214;-27
2023/05/17 04:11:39;;;;;;;1.10;0.90;;;;;;;;;;4986592;28;20222;-28
2023/05/17 04:17:32;;;;;;;1.30;1.20;;;;;;;;;;5051009;28;20304;-30
2023/05/17 04:23:00;;;;;;;1.83;1.00;;;;;;;;;;5034600;28;20205;-28
2023/05/17 04:31:55;;;;;;;1.00;1.00;;;;;;;;;;5062791;28;20205;-31
2023/05/17 04:34:52;;;;;;;1.40;0.77;;;;;;;;;;5060842;28;20225;-29
2023/05/17 04:55:52;;;;;;;0.90;0.80;;;;;;;;;;4983263;22;20234;-29
2023/05/17 04:58:56;;;;;;;;;;;;;;;;;;;;;
2023/05/17 05:15:42;;;;;;;3.73;1.43;;;;;;;;;;5068603;22;20256;-28
2023/05/17 05:18:10;;;;;;;3.47;1.83;;;;;;;;;;5061380;28;20216;-29
2023/05/17 05:20:37;;;;;;;2.13;1.20;;;;;;;;;;5050989;28;20226;-28
2023/05/17 05:23:04;;;;;;;2.40;1.50;;;;;;;;;;5050355;28;20202;-26
2023/05/17 05:25:31;;;;;;;2.30;1.50;;;;;;;;;;5050278;28;20225;-28
2023/05/17 05:27:58;;;;;;;1.50;1.17;;;;;;;;;;5055871;28;20202;-30
2023/05/17 05:30:26;;;;;;;4.57;1.60;;;;;;;;;;5057614;28;20215;-30
2023/05/17 05:32:54;;;;;;;1.67;1.00;;;;;;;;;;5066370;28;20261;-29
2023/05/17 05:35:27;;;;;;;4.00;1.40;;;;;;;;;;5057439;28;20228;-31
2023/05/17 05:37:54;;;;;;;1.40;1.23;;;;;;;;;;5050173;28;20265;-31
2023/05/17 05:40:22;;;;;;;1.30;1.20;;;;;;;;;;5054355;28;20206;-29
2023/05/17 05:42:49;;;;;;;1.57;1.30;;;;;;;;;;5069853;28;20197;-28
2023/05/17 05:45:16;;;;;;;4.30;1.50;;;;;;;;;;5050515;28;20232;-29
2023/05/17 05:47:43;;;;;;;3.77;1.40;;;;;;;;;;5057067;28;20235;-29
2023/05/17 05:50:12;;;;;;;1.53;1.43;;;;;;;;;;5070642;28;20213;-29
2023/05/17 05:52:39;;;;;;;2.33;1.60;;;;;;;;;;5069989;28;20229;-27
2023/05/17 05:55:06;;;;;;;2.00;1.30;;;;;;;;;;5059669;28;20333;-27
2023/05/17 05:57:34;;;;;;;2.70;1.63;;;;;;;;;;5062628;28;20205;-29
2023/05/17 06:00:01;;;;;;;1.87;1.40;;;;;;;;;;5058854;28;20390;-30
2023/05/17 06:02:28;;;;;;;2.50;1.50;;;;;;;;;;5063225;28;20214;-27
2023/05/17 06:04:55;;;;;;;2.07;1.60;;;;;;;;;;5060606;28;20206;-30
2023/05/17 06:07:24;;;;;;;3.27;1.37;;;;;;;;;;5050313;28;20209;-29
2023/05/17 06:09:51;;;;;;;2.33;1.73;;;;;;;;;;5054534;28;20214;-30
2023/05/17 06:12:19;;;;;;;2.90;1.60;;;;;;;;;;5070632;28;20204;-29
2023/05/17 06:14:46;;;;;;;2.93;1.40;;;;;;;;;;5064638;28;20225;-29
2023/05/17 06:17:13;;;;;;;2.60;1.60;;;;;;;;;;5051128;28;20222;-31
2023/05/17 06:19:40;;;;;;;1.50;1.27;;;;;;;;;;5056624;28;20202;-28
2023/05/17 06:22:07;;;;;;;5.13;1.20;;;;;;;;;;5074118;28;20209;-31
2023/05/17 06:24:36;;;;;;;1.97;1.50;;;;;;;;;;5071790;28;20213;-28
2023/05/17 06:27:03;;;;;;;1.77;1.10;;;;;;;;;;5061649;28;20221;-28
2023/05/17 06:29:30;;;;;;;2.73;1.67;;;;;;;;;;5058786;28;20202;-29
2023/05/17 06:31:58;;;;;;;3.00;1.37;;;;;;;;;;5058997;28;20239;-29
2023/05/17 06:34:25;;;;;;;3.73;1.43;;;;;;;;;;5066026;28;20201;-28
2023/05/17 06:36:53;;;;;;;3.00;1.30;;;;;;;;;;5073103;28;20308;-31
2023/05/17 06:39:20;;;;;;;2.83;1.33;;;;;;;;;;5063247;28;20216;-29
2023/05/17 06:41:48;;;;;;;3.93;1.53;;;;;;;;;;5073025;28;20209;-28
2023/05/17 06:44:15;;;;;;;4.17;1.67;;;;;;;;;;5060950;28;20206;-28
2023/05/17 06:46:42;;;;;;;2.30;1.60;;;;;;;;;;5054910;28;20229;-27
2023/05/17 06:49:09;;;;;;;1.93;1.40;;;;;;;;;;5069511;28;20206;-30
2023/05/17 06:51:37;;;;;;;4.40;1.77;;;;;;;;;;5053462;28;20209;-29
2023/05/17 06:54:04;;;;;;;4.50;1.83;;;;;;;;;;5061645;28;20228;-26
2023/05/17 06:56:31;;;;;;;6.27;2.00;;;;;;;;;;5066302;28;20222;-28
2023/05/17 06:59:00;;;;;;;3.30;1.50;;;;;;;;;;5070450;28;20197;-30
2023/05/17 07:01:27;;;;;;;3.07;1.60;;;;;;;;;;5064632;28;20210;-27
2023/05/17 07:03:54;;;;;;;3.70;1.93;;;;;;;;;;5070428;28;20236;-29
2023/05/17 07:06:21;;;;;;;4.37;2.10;;;;;;;;;;5072353;28;20585;-28
2023/05/17 07:08:48;;;;;;;2.70;1.73;;;;;;;;;;5069205;28;20205;-30
2023/05/17 07:11:15;;;;;;;3.37;1.17;;;;;;;;;;5068413;28;20204;-29
2023/05/17 07:13:42;;;;;;;3.60;2.00;;;;;;;;;;5063579;28;20201;-27
2023/05/17 07:16:11;;;;;;;4.27;1.83;;;;;;;;;;5059198;28;20234;-29
2023/05/17 07:18:38;;;;;;;3.03;1.70;;;;;;;;;;5071710;28;20214;-31
2023/05/17 07:21:05;;;;;;;3.47;1.70;;;;;;;;;;5072207;28;20228;-28
2023/05/17 07:23:32;;;;;;;2.53;1.80;;;;;;;;;;5064502;28;20202;-31
2023/05/17 07:25:59;;;;;;;4.90;1.67;;;;;;;;;;5051972;28;20222;-29
2023/05/17 07:28:26;;;;;;;5.33;2.00;;;;;;;;;;5059856;28;20197;-27
2023/05/17 07:30:54;;;;;;;2.13;1.50;;;;;;;;;;5056785;28;20201;-29
2023/05/17 07:33:23;;;;;;;2.13;1.50;;;;;;;;;;5055751;28;20293;-27
2023/05/17 07:35:50;;;;;;;7.37;2.33;;;;;;;;;;5061579;28;20225;-30
2023/05/17 07:38:17;;;;;;;6.60;1.73;;;;;;;;;;5056460;28;20207;-28
2023/05/17 07:40:44;;;;;;;7.93;2.30;;;;;;;;;;5051449;28;20211;-30
2023/05/17 07:43:11;;;;;;;5.00;2.27;;;;;;;;;;5059806;28;20691;-32
2023/05/17 07:45:38;;;;;;;5.60;2.10;;;;;;;;;;5053491;28;20236;-27
2023/05/17 07:48:05;;;;;;;3.80;2.10;;;;;;;;;;5059834;28;20202;-30
2023/05/17 07:50:34;;;;;;;5.70;1.53;;;;;;;;;;5059807;28;20197;-27
2023/05/17 07:53:01;;;;;;;4.93;2.30;;;;;;;;;;5055167;28;20200;-30
2023/05/17 07:55:29;;;;;;;3.63;1.90;;;;;;;;;;5059404;28;20231;-27
2023/05/17 07:57:56;;;;;;;5.33;2.17;;;;;;;;;;5058990;28;20208;-29
2023/05/17 08:00:23;;;;;;;3.53;1.73;;;;;;;;;;5053676;28;20200;-31
2023/05/17 08:02:51;;;;;;;3.97;2.13;;;;;;;;;;5059203;28;20205;-31
2023/05/17 08:05:18;;;;;;;6.13;1.87;;;;;;;;;;5064129;28;20227;-29
2023/05/17 08:07:46;;;;;;;3.43;1.77;;;;;;;;;;5061192;28;20206;-30
2023/05/17 08:10:13;;;;;;;4.03;2.27;;;;;;;;;;5064478;28;20228;-28
2023/05/17 08:12:41;;;;;;;6.03;2.33;;;;;;;;;;5060089;28;20205;-29
2023/05/17 08:15:08;;;;;;;3.80;2.40;;;;;;;;;;5058344;28;20210;-30
2023/05/17 08:17:35;;;;;;;4.47;2.73;;;;;;;;;;5063468;28;20209;-27
2023/05/17 08:20:04;;;;;;;6.20;1.97;;;;;;;;;;5063640;28;20202;-29
2023/05/17 08:22:32;;;;;;;6.43;2.40;;;;;;;;;;5059754;28;20240;-31
2023/05/17 08:25:00;;;;;;;2.60;1.90;;;;;;;;;;5056262;28;20213;-30
2023/05/17 08:27:29;;;;;;;4.93;1.73;;;;;;;;;;5062830;28;20210;-31
2023/05/17 08:29:56;;;;;;;4.17;1.90;;;;;;;;;;5054737;28;20228;-29
2023/05/17 08:32:24;;;;;;;2.00;1.60;;;;;;;;;;5061458;28;20203;-29
2023/05/17 08:34:52;;;;;;;4.63;2.20;;;;;;;;;;5058966;28;20206;-29
2023/05/17 08:37:20;;;;;;;8.17;2.43;;;;;;;;;;5061110;28;20230;-31
2023/05/17 08:39:48;;;;;;;3.50;1.97;;;;;;;;;;5058954;28;20202;-27
2023/05/17 08:42:18;;;;;;;5.17;2.10;;;;;;;;;;5059067;28;20226;-30
2023/05/17 08:44:46;;;;;;;1.93;1.67;;;;;;;;;;5058375;28;20212;-30
2023/05/17 08:47:25;;;;;;;2.43;2.03;;;;;;;;;;5059167;28;20258;-27
2023/05/17 08:49:52;;;;;;;5.30;2.30;;;;;;;;;;5060967;28;20201;-32
2023/05/17 08:52:20;;;;;;;2.87;2.13;;;;;;;;;;5054821;28;20246;-29
2023/05/17 08:54:47;;;;;;;2.63;1.80;;;;;;;;;;5057608;28;20309;-29
2023/05/17 08:57:17;;;;;;;5.80;2.40;;;;;;;;;;5053308;28;20221;-28
2023/05/17 08:59:45;;;;;;;2.80;1.90;;;;;;;;;;5060345;28;20193;-31
2023/05/17 09:02:15;;;;;;;2.93;2.30;;;;;;;;;;5062101;28;20258;-29
2023/05/17 09:04:42;;;;;;;2.27;1.70;;;;;;;;;;5063060;28;20201;-29
2023/05/17 09:07:10;;;;;;;6.87;2.40;;;;;;;;;;5059295;28;20217;-29
2023/05/17 09:09:37;;;;;;;2.20;1.60;;;;;;;;;;5060351;28;20414;-31
2023/05/17 09:12:04;;;;;;;4.00;2.03;;;;;;;;;;5064762;28;20212;-31
2023/05/17 09:14:36;;;;;;;3.50;2.10;;;;;;;;;;5060902;28;20715;-31
2023/05/17 09:17:03;;;;;;;2.80;1.83;;;;;;;;;;5060959;28;20217;-32
2023/05/17 09:19:31;;;;;;;4.90;2.03;;;;;;;;;;5062281;28;20198;-29
2023/05/17 09:22:01;;;;;;;5.00;2.20;;;;;;;;;;5059224;28;20739;-29
2023/05/17 09:24:28;;;;;;;1.90;1.50;;;;;;;;;;5057409;28;20514;-32
2023/05/17 09:27:01;;;;;;;2.83;2.40;;;;;;;;;;5058663;28;20217;-30
2023/05/17 09:29:30;;;;;;;3.83;1.67;;;;;;;;;;5061947;28;20194;-28
2023/05/17 09:32:12;;;;;;;3.33;1.90;;;;;;;;;;5056953;28;20209;-28
2023/05/17 09:34:39;;;;;;;3.77;2.30;;;;;;;;;;5060642;28;20227;-31
2023/05/17 09:37:07;;;;;;;3.23;2.00;;;;;;;;;;5058260;28;20282;-31
2023/05/17 09:39:36;;;;;;;3.80;2.07;;;;;;;;;;5059324;28;20237;-29
2023/05/17 09:42:04;;;;;;;2.03;1.53;;;;;;;;;;5060380;28;20208;-30
2023/05/17 09:44:31;;;;;;;5.60;2.10;;;;;;;;;;5063882;28;20205;-28
2023/05/17 09:47:00;;;;;;;3.90;2.20;;;;;;;;;;5058351;28;20222;-30
2023/05/17 09:49:28;;;;;;;2.70;2.10;;;;;;;;;;5064125;28;20204;-28
2023/05/17 09:51:55;;;;;;;3.00;2.27;;;;;;;;;;5049899;28;20205;-30
2023/05/17 09:54:22;;;;;;;2.77;1.83;;;;;;;;;;5053749;28;20651;-28
2023/05/17 09:56:58;;;;;;;2.57;1.60;;;;;;;;;;5067090;28;20232;-30
2023/05/17 09:59:27;;;;;;;2.87;2.10;;;;;;;;;;5076061;28;20197;-28
2023/05/17 10:01:54;;;;;;;3.07;1.80;;;;;;;;;;5061001;28;20288;-30
2023/05/17 10:04:25;;;;;;;2.07;1.63;;;;;;;;;;5071156;28;20197;-30
2023/05/17 10:06:55;;;;;;;2.77;1.90;;;;;;;;;;5056270;28;20220;-28
2023/05/17 10:09:23;;;;;;;2.27;1.63;;;;;;;;;;5057915;28;20201;-31
2023/05/17 10:11:52;;;;;;;4.17;2.20;;;;;;;;;;5067959;28;20267;-28
2023/05/17 10:14:22;;;;;;;2.77;1.70;;;;;;;;;;5067344;28;20212;-29
2023/05/17 10:16:49;;;;;;;3.63;1.73;;;;;;;;;;5066198;28;20228;-28
2023/05/17 10:19:18;;;;;;;4.23;1.90;;;;;;;;;;5055607;28;20202;-31
2023/05/17 10:21:48;;;;;;;2.47;1.60;;;;;;;;;;5055812;28;20206;-28
2023/05/17 10:24:15;;;;;;;1.70;1.60;;;;;;;;;;5057536;28;20201;-30
2023/05/17 10:26:43;;;;;;;2.13;1.63;;;;;;;;;;5075005;28;20221;-26
2023/05/17 10:29:10;;;;;;;3.30;1.97;;;;;;;;;;5075372;28;20375;-28
2023/05/17 10:31:37;;;;;;;2.30;1.73;;;;;;;;;;5065951;28;20517;-28
2023/05/17 10:34:05;;;;;;;3.47;1.97;;;;;;;;;;5065754;28;20292;-30
2023/05/17 10:36:33;;;;;;;2.87;1.67;;;;;;;;;;5075347;28;20229;-29
2023/05/17 10:39:02;;;;;;;2.47;1.70;;;;;;;;;;5073774;28;20205;-28
2023/05/17 10:41:33;;;;;;;2.10;1.43;;;;;;;;;;5056491;28;20208;-29
2023/05/17 10:44:01;;;;;;;1.90;1.47;;;;;;;;;;5063171;28;20227;-30
2023/05/17 10:46:30;;;;;;;1.77;1.67;;;;;;;;;;5061395;28;20224;-28
2023/05/17 10:48:59;;;;;;;2.37;1.57;;;;;;;;;;5066109;28;20336;-30
2023/05/17 10:51:27;;;;;;;3.10;1.90;;;;;;;;;;5076474;28;20230;-31
2023/05/17 10:54:10;;;;;;;3.07;1.57;;;;;;;;;;5070032;28;20201;-27
2023/05/17 10:56:40;;;;;;;3.97;2.13;;;;;;;;;;5069230;28;20435;-28
2023/05/17 10:59:17;;;;;;;3.03;1.87;;;;;;;;;;5075371;28;20201;-29
2023/05/17 11:01:54;;;;;;;4.67;2.40;;;;;;;;;;5063170;28;20537;-26
2023/05/17 11:04:24;;;;;;;2.87;1.97;;;;;;;;;;5065953;28;20555;-27
2023/05/17 11:06:52;;;;;;;5.03;2.37;;;;;;;;;;5074568;28;20403;-31
2023/05/17 11:09:22;;;;;;;3.33;2.03;;;;;;;;;;5072564;28;20203;-26
2023/05/17 11:12:05;;;;;;;3.90;2.33;;;;;;;;;;5057437;28;20194;-30
2023/05/17 11:14:44;;;;;;;3.90;1.90;;;;;;;;;;5067780;28;20190;-30
2023/05/17 11:19:39;;;;;;;4.93;2.10;;;;;;;;;;5042218;28;20223;-33
2023/05/17 11:22:12;;;;;;;4.47;2.00;;;;;;;;;;5052737;28;20206;-35
2023/05/17 11:24:43;;;;;;;2.83;2.20;;;;;;;;;;5041117;28;20263;-32
2023/05/17 11:27:10;;;;;;;3.23;2.20;;;;;;;;;;5049486;28;20222;-32
2023/05/17 11:29:41;;;;;;;5.03;2.30;;;;;;;;;;5050145;28;20202;-31
2023/05/17 11:32:10;;;;;;;4.20;2.40;;;;;;;;;;5038310;28;20667;-35
2023/05/17 11:34:38;;;;;;;2.20;2.00;;;;;;;;;;5031571;28;20211;-34
2023/05/17 11:37:10;;;;;;;4.23;2.37;;;;;;;;;;5031815;28;20231;-33
2023/05/17 11:39:38;;;;;;;3.57;2.43;;;;;;;;;;5039772;28;20225;-34
2023/05/17 11:42:06;;;;;;;4.77;2.87;;;;;;;;;;5051255;28;20206;-32
2023/05/17 11:44:34;;;;;;;3.37;2.20;;;;;;;;;;5050356;28;20557;-36
2023/05/17 11:47:02;;;;;;;6.27;2.60;;;;;;;;;;5038904;28;20235;-33
2023/05/17 11:49:31;;;;;;;6.03;2.40;;;;;;;;;;5040038;28;20206;-34
2023/05/17 11:51:58;;;;;;;3.63;2.40;;;;;;;;;;5031546;28;20206;-32
2023/05/17 11:54:26;;;;;;;6.30;2.30;;;;;;;;;;5029906;28;20211;-33
2023/05/17 11:56:54;;;;;;;3.40;2.53;;;;;;;;;;5039687;28;20231;-34
2023/05/17 11:59:23;;;;;;;2.27;1.77;;;;;;;;;;5043348;28;20212;-32
2023/05/17 12:01:51;;;;;;;4.30;2.43;;;;;;;;;;5030316;28;20302;-31
2023/05/17 12:04:24;;;;;;;3.77;2.23;;;;;;;;;;5033497;28;20209;-31
2023/05/17 12:06:51;;;;;;;3.50;2.10;;;;;;;;;;5051296;28;20225;-35
2023/05/17 12:09:18;;;;;;;5.50;2.20;;;;;;;;;;5047049;28;20689;-34
2023/05/17 12:11:46;;;;;;;2.93;2.30;;;;;;;;;;5041980;28;20570;-32
2023/05/17 12:14:16;;;;;;;5.97;2.63;;;;;;;;;;5041965;28;20206;-34
2023/05/17 12:16:45;;;;;;;4.20;2.03;;;;;;;;;;5043165;28;20710;-32
2023/05/17 12:19:18;;;;;;;6.37;2.20;;;;;;;;;;5031979;28;20214;-34
2023/05/17 12:21:46;;;;;;;2.20;2.00;;;;;;;;;;5050796;28;20206;-33
2023/05/17 12:24:13;;;;;;;3.77;2.40;;;;;;;;;;5050053;28;20256;-32
2023/05/17 12:26:43;;;;;;;2.73;1.80;;;;;;;;;;5039702;28;20222;-31
2023/05/17 12:29:10;;;;;;;5.70;2.40;;;;;;;;;;5042844;28;20248;-32
2023/05/17 12:31:39;;;;;;;3.47;2.23;;;;;;;;;;5039015;28;20424;-31
2023/05/17 12:34:08;;;;;;;8.70;2.70;;;;;;;;;;5033398;28;20535;-35
2023/05/17 12:36:36;;;;;;;4.43;2.30;;;;;;;;;;5050942;28;20295;-34
2023/05/17 12:39:07;;;;;;;3.33;1.90;;;;;;;;;;5049897;28;20255;-34
2023/05/17 12:41:34;;;;;;;3.73;2.37;;;;;;;;;;5035697;28;20267;-36
2023/05/17 12:44:02;;;;;;;4.20;2.07;;;;;;;;;;5035539;28;20563;-35
2023/05/17 12:46:29;;;;;;;2.20;1.90;;;;;;;;;;5041928;28;20230;-34
2023/05/17 12:49:01;;;;;;;2.83;2.00;;;;;;;;;;5042979;28;20211;-32
2023/05/17 12:51:30;;;;;;;4.17;2.17;;;;;;;;;;5051577;28;20217;-29
2023/05/17 12:53:58;;;;;;;3.43;1.90;;;;;;;;;;5049972;28;20229;-31
2023/05/17 12:56:27;;;;;;;5.23;2.20;;;;;;;;;;5040256;28;20248;-32
2023/05/17 12:59:04;;;;;;;4.20;2.00;;;;;;;;;;5038521;28;20203;-35
2023/05/17 13:01:33;;;;;;;2.47;1.93;;;;;;;;;;5029958;28;20246;-32
2023/05/17 13:04:00;;;;;;;2.67;2.30;;;;;;;;;;5047321;28;20578;-34
2023/05/17 13:06:27;;;;;;;2.87;2.13;;;;;;;;;;5030178;28;20433;-33
2023/05/17 13:09:02;;;;;;;2.53;2.03;;;;;;;;;;5030269;28;20326;-33
2023/05/17 13:11:30;;;;;;;2.83;2.00;;;;;;;;;;5033759;28;20210;-33
2023/05/17 13:13:57;;;;;;;4.63;2.17;;;;;;;;;;5041031;28;20226;-32
2023/05/17 13:16:31;;;;;;;8.20;2.50;;;;;;;;;;5033303;28;20230;-34
2023/05/17 13:18:58;;;;;;;3.40;2.30;;;;;;;;;;5041219;28;20225;-33
2023/05/17 13:21:25;;;;;;;4.10;2.10;;;;;;;;;;5050110;28;20233;-34
2023/05/17 13:23:52;;;;;;;4.23;2.37;;;;;;;;;;5049984;28;20216;-34
2023/05/17 13:26:21;;;;;;;3.90;2.40;;;;;;;;;;5038507;28;20507;-33
2023/05/17 13:28:49;;;;;;;3.00;2.00;;;;;;;;;;5029534;28;20294;-34
2023/05/17 13:31:17;;;;;;;2.77;1.90;;;;;;;;;;5032234;28;20337;-34
2023/05/17 13:33:44;;;;;;;4.73;1.87;;;;;;;;;;5044597;28;20229;-31
2023/05/17 13:36:11;;;;;;;4.50;2.20;;;;;;;;;;5030856;28;20222;-33
2023/05/17 13:38:38;;;;;;;2.90;2.17;;;;;;;;;;5028340;28;20679;-32
2023/05/17 13:41:06;;;;;;;3.87;2.40;;;;;;;;;;5034179;28;20534;-31
2023/05/17 13:43:35;;;;;;;4.90;2.37;;;;;;;;;;5043556;28;20260;-32
2023/05/17 13:46:02;;;;;;;6.47;2.40;;;;;;;;;;5042099;28;20230;-34
2023/05/17 13:48:29;;;;;;;3.90;2.43;;;;;;;;;;5041582;28;20629;-34
2023/05/17 13:50:57;;;;;;;2.83;2.00;;;;;;;;;;5033344;28;20687;-30
2023/05/17 13:53:24;;;;;;;4.53;2.60;;;;;;;;;;5028712;28;20206;-34
2023/05/17 13:55:51;;;;;;;3.97;2.10;;;;;;;;;;5037212;28;20229;-33
2023/05/17 13:58:18;;;;;;;3.80;1.73;;;;;;;;;;5034518;28;20221;-35
2023/05/17 14:00:46;;;;;;;5.87;2.37;;;;;;;;;;5042047;28;20214;-30
2023/05/17 14:03:14;;;;;;;4.97;2.50;;;;;;;;;;5039307;28;20202;-32
2023/05/17 14:05:41;;;;;;;3.57;2.37;;;;;;;;;;5032518;28;20552;-32
2023/05/17 14:08:08;;;;;;;4.57;2.33;;;;;;;;;;5039362;28;20223;-35
2023/05/17 14:10:35;;;;;;;4.63;1.93;;;;;;;;;;5045010;28;20221;-31
2023/05/17 14:13:03;;;;;;;5.63;2.50;;;;;;;;;;5049530;28;20213;-31
2023/05/17 14:15:31;;;;;;;3.07;2.17;;;;;;;;;;5042208;28;20222;-34
2023/05/17 14:18:00;;;;;;;3.87;2.30;;;;;;;;;;5037344;28;20237;-32
2023/05/17 14:20:27;;;;;;;2.67;2.00;;;;;;;;;;5037848;28;20206;-31
2023/05/17 14:22:54;;;;;;;3.27;2.30;;;;;;;;;;5042456;28;20231;-33
2023/05/17 14:25:21;;;;;;;4.43;1.97;;;;;;;;;;5044812;28;20222;-32
2023/05/17 14:27:48;;;;;;;3.50;2.33;;;;;;;;;;5049038;28;20666;-31
2023/05/17 14:30:16;;;;;;;2.97;2.30;;;;;;;;;;5039788;28;20202;-33
2023/05/17 14:32:43;;;;;;;3.13;2.00;;;;;;;;;;5042851;28;20664;-31
2023/05/17 14:35:11;;;;;;;4.60;2.20;;;;;;;;;;5048623;28;20240;-32
2023/05/17 14:37:38;;;;;;;2.80;2.10;;;;;;;;;;5047279;28;20494;-33
2023/05/17 14:40:08;;;;;;;4.47;3.27;;;;;;;;;;5043945;28;20526;-34
2023/05/17 14:42:35;;;;;;;4.50;2.60;;;;;;;;;;5045249;28;20278;-33
2023/05/17 14:45:03;;;;;;;2.70;2.13;;;;;;;;;;5048601;28;20213;-31
2023/05/17 14:47:30;;;;;;;5.30;2.40;;;;;;;;;;5045188;28;20581;-32
2023/05/17 14:49:58;;;;;;;4.23;2.30;;;;;;;;;;5050991;28;20202;-32
2023/05/17 14:52:27;;;;;;;2.37;2.17;;;;;;;;;;5050736;28;20256;-34
2023/05/17 14:54:54;;;;;;;3.33;2.33;;;;;;;;;;5046637;28;20296;-34
2023/05/17 14:57:22;;;;;;;3.47;2.17;;;;;;;;;;5042536;28;20228;-33
2023/05/17 14:59:49;;;;;;;5.50;2.63;;;;;;;;;;5047708;28;20304;-31
2023/05/17 15:02:16;;;;;;;2.57;2.13;;;;;;;;;;5042005;28;20234;-33
2023/05/17 15:04:43;;;;;;;3.40;2.17;;;;;;;;;;5051191;28;20642;-32
2023/05/17 15:07:10;;;;;;;4.07;2.23;;;;;;;;;;5052671;28;20221;-30
2023/05/17 15:09:42;;;;;;;5.07;2.40;;;;;;;;;;5046800;28;20202;-33
2023/05/17 15:12:09;;;;;;;3.60;2.10;;;;;;;;;;5036802;28;20202;-34
2023/05/17 15:14:37;;;;;;;5.63;2.73;;;;;;;;;;5043686;28;20197;-32
2023/05/17 15:17:04;;;;;;;4.03;2.30;;;;;;;;;;5046289;28;20222;-34
2023/05/17 15:19:32;;;;;;;3.03;2.17;;;;;;;;;;5035343;28;20232;-32
2023/05/17 15:22:00;;;;;;;4.33;2.40;;;;;;;;;;5035982;28;20209;-34
2023/05/17 15:24:28;;;;;;;6.00;2.37;;;;;;;;;;5036782;28;20213;-34
2023/05/17 15:26:56;;;;;;;2.23;1.93;;;;;;;;;;5039024;28;20317;-34
2023/05/17 15:29:23;;;;;;;6.70;2.10;;;;;;;;;;5046090;28;20194;-33
2023/05/17 15:31:50;;;;;;;5.60;2.67;;;;;;;;;;5034397;28;20406;-33
2023/05/17 15:34:17;;;;;;;4.57;2.93;;;;;;;;;;5043233;28;20206;-34
2023/05/17 15:36:45;;;;;;;4.07;2.30;;;;;;;;;;5052265;28;20218;-35
2023/05/17 15:39:12;;;;;;;3.70;1.90;;;;;;;;;;5050593;28;20226;-33
2023/05/17 15:41:39;;;;;;;3.83;2.33;;;;;;;;;;5043311;28;20201;-30
2023/05/17 15:44:08;;;;;;;6.57;2.70;;;;;;;;;;5051206;28;20198;-33
2023/05/17 15:46:35;;;;;;;8.60;3.13;;;;;;;;;;5038186;28;20223;-32
2023/05/17 15:49:02;;;;;;;3.07;2.07;;;;;;;;;;5043242;28;20203;-35
2023/05/17 15:51:29;;;;;;;2.50;2.30;;;;;;;;;;5051902;28;20217;-32
2023/05/17 15:53:57;;;;;;;4.13;2.43;;;;;;;;;;5046795;28;20209;-32
2023/05/17 15:56:24;;;;;;;3.87;2.30;;;;;;;;;;5035116;28;20229;-32
2023/05/17 15:58:51;;;;;;;3.57;2.17;;;;;;;;;;5048993;28;20220;-34
2023/05/17 16:01:19;;;;;;;3.40;2.03;;;;;;;;;;5041753;28;20202;-33
2023/05/17 16:03:47;;;;;;;3.97;2.57;;;;;;;;;;5040244;28;20289;-35
2023/05/17 16:06:14;;;;;;;3.47;2.33;;;;;;;;;;5034871;28;20233;-33
2023/05/17 16:08:41;;;;;;;5.17;3.10;;;;;;;;;;5031696;28;20209;-32
2023/05/17 16:11:08;;;;;;;4.27;2.57;;;;;;;;;;5036661;28;20205;-33
2023/05/17 16:13:36;;;;;;;3.27;2.43;;;;;;;;;;5044803;28;20263;-31
2023/05/17 16:16:03;;;;;;;3.20;2.20;;;;;;;;;;5046839;28;20222;-32
2023/05/17 16:18:31;;;;;;;3.17;2.57;;;;;;;;;;5052891;28;20233;-33
2023/05/17 16:20:59;;;;;;;9.03;2.50;;;;;;;;;;5037131;28;20198;-32
2023/05/17 16:23:27;;;;;;;3.90;2.50;;;;;;;;;;5031020;28;20255;-34
2023/05/17 16:25:54;;;;;;;3.10;2.37;;;;;;;;;;5041440;28;20300;-33
2023/05/17 16:28:22;;;;;;;3.07;2.20;;;;;;;;;;5051016;28;20202;-35
2023/05/17 16:30:49;;;;;;;3.70;2.10;;;;;;;;;;5039129;28;20198;-31
2023/05/17 16:33:18;;;;;;;7.83;2.77;;;;;;;;;;5041632;28;20217;-32
2023/05/17 16:35:47;;;;;;;3.20;2.17;;;;;;;;;;5044869;28;20226;-31
2023/05/17 16:38:14;;;;;;;3.37;2.10;;;;;;;;;;5051111;28;20237;-33
2023/05/17 16:40:41;;;;;;;3.43;2.33;;;;;;;;;;5040558;28;20206;-29
2023/05/17 16:43:09;;;;;;;3.80;2.57;;;;;;;;;;5045687;28;20210;-33
2023/05/17 16:45:37;;;;;;;2.73;2.40;;;;;;;;;;5043682;28;20224;-34
2023/05/17 16:48:04;;;;;;;3.90;2.37;;;;;;;;;;5043018;28;20547;-35
2023/05/17 16:50:31;;;;;;;3.13;2.23;;;;;;;;;;5037356;28;20209;-31
2023/05/17 16:53:00;;;;;;;3.40;2.40;;;;;;;;;;5041981;28;20194;-33
2023/05/17 16:55:27;;;;;;;3.47;2.07;;;;;;;;;;5040582;28;20278;-36
2023/05/17 16:57:54;;;;;;;5.23;2.30;;;;;;;;;;5039539;28;20206;-30
2023/05/17 17:00:21;;;;;;;3.47;2.17;;;;;;;;;;5036436;28;20206;-32
2023/05/17 17:02:56;;;;;;;5.43;2.47;;;;;;;;;;5039661;28;20201;-32
2023/05/17 17:05:24;;;;;;;2.90;2.03;;;;;;;;;;5047229;28;20734;-32
2023/05/17 17:07:51;;;;;;;4.00;2.37;;;;;;;;;;5039447;28;20237;-29
2023/05/17 17:10:20;;;;;;;3.77;2.30;;;;;;;;;;5037092;28;20199;-31
2023/05/17 17:12:47;;;;;;;3.17;1.60;;;;;;;;;;5039212;28;20559;-33
2023/05/17 17:15:14;;;;;;;3.00;1.93;;;;;;;;;;5035417;28;20312;-32
2023/05/17 17:17:42;;;;;;;4.30;1.90;;;;;;;;;;5035501;28;20222;-35
2023/05/17 17:20:10;;;;;;;4.57;2.40;;;;;;;;;;5044847;28;20233;-32
2023/05/17 17:22:37;;;;;;;8.03;2.50;;;;;;;;;;5045940;28;20662;-30
2023/05/17 17:25:11;;;;;;;5.13;2.23;;;;;;;;;;5034654;28;20202;-32
2023/05/17 17:27:40;;;;;;;4.73;1.97;;;;;;;;;;5033954;28;20201;-31
2023/05/17 17:30:08;;;;;;;5.80;2.47;;;;;;;;;;5041485;28;20202;-32
2023/05/17 17:32:35;;;;;;;5.50;2.87;;;;;;;;;;5045418;28;20209;-34
2023/05/17 17:35:02;;;;;;;3.90;1.97;;;;;;;;;;5033932;28;20194;-32
2023/05/17 17:37:29;;;;;;;3.10;2.40;;;;;;;;;;5045634;28;20201;-32
2023/05/17 17:39:56;;;;;;;2.97;2.40;;;;;;;;;;5032146;28;20236;-31
2023/05/17 17:42:24;;;;;;;2.60;2.17;;;;;;;;;;5041964;28;20204;-35
2023/05/17 17:44:52;;;;;;;2.50;1.83;;;;;;;;;;5034661;28;20204;-30
2023/05/17 17:47:19;;;;;;;3.10;2.33;;;;;;;;;;5030232;28;20219;-31
2023/05/17 17:49:47;;;;;;;3.67;2.10;;;;;;;;;;5036601;28;20216;-36
2023/05/17 17:52:15;;;;;;;2.10;1.87;;;;;;;;;;5047414;28;20212;-35
2023/05/17 17:54:42;;;;;;;3.17;2.13;;;;;;;;;;5041655;28;20208;-33
2023/05/17 17:57:09;;;;;;;4.23;2.37;;;;;;;;;;5045398;28;20227;-33
2023/05/17 17:59:36;;;;;;;6.47;2.40;;;;;;;;;;5043632;28;20216;-31
2023/05/17 18:02:05;;;;;;;4.13;2.13;;;;;;;;;;5037769;28;20214;-34
2023/05/17 18:04:32;;;;;;;5.97;2.70;;;;;;;;;;5040490;28;20213;-33
2023/05/17 18:07:00;;;;;;;3.60;2.30;;;;;;;;;;5044887;28;20227;-31
2023/05/17 18:09:27;;;;;;;2.43;2.23;;;;;;;;;;5041087;28;20210;-30
2023/05/17 18:11:55;;;;;;;4.23;2.40;;;;;;;;;;5030982;28;20308;-30
2023/05/17 18:14:22;;;;;;;2.80;1.87;;;;;;;;;;5039379;28;20202;-32
2023/05/17 18:16:50;;;;;;;4.60;2.47;;;;;;;;;;5033708;28;20219;-32
2023/05/17 18:19:18;;;;;;;5.57;2.43;;;;;;;;;;5047943;28;20242;-30
2023/05/17 18:21:49;;;;;;;2.53;1.87;;;;;;;;;;5048680;28;20683;-34
2023/05/17 18:24:16;;;;;;;2.67;2.47;;;;;;;;;;5045479;28;20203;-31
2023/05/17 18:26:43;;;;;;;4.97;2.80;;;;;;;;;;5037565;28;20217;-34
2023/05/17 18:29:10;;;;;;;4.67;3.00;;;;;;;;;;5044269;28;20210;-31
2023/05/17 18:31:37;;;;;;;6.63;3.53;;;;;;;;;;5039498;28;20493;-31